Nave Celeste — VRZH4 — position and weather

sailwx.info

Track history (hours):
 
Tides and Currents Weather Stations Pressure Air Temp Water Temp Dewpoint Dewpoint Depression Visibility Wind Speed Wind Dir Waves Ship Positions

Nave Celeste

Last reported at 2015-May-02 13:31 UTC. Time now 2015-Jul-01 12:00 UTC.
Position N 30°38' W 120°37'.
Warning: this ship's position is 59 days out of date.

Length 333 m; draft 22.4 m.

Type: Ship (hazmat cat A). MMSI: 477974000.

Date/timePositionNaut miles runAvg speedWind from/ knotsBaromVisibWave heightAir tempDewpointWater temp
2015-May-02 13:31N 30°38' W 120°37'2411.7
2015-May-02 11:29N 30°45' W 120°10'1612.3
2015-May-02 10:12N 30°50' W 119°53'1012.1
2015-May-02 09:23N 30°53' W 119°42'1212.1
2015-May-02 08:26N 30°56' W 119°29'52 8.5
2015-May-02 02:15N 31°42' W 119°00'2 2.4
2015-May-02 01:31N 31°43' W 119°02'2 1.9
2015-May-02 00:32N 31°44' W 119°04'2 1.2
2015-May-01 22:33N 31°42' W 119°02'3 2.5
2015-May-01 21:31N 31°43' W 119°05'3 2.5
2015-May-01 20:31N 31°45' W 119°07'2 1.8
2015-May-01 19:31N 31°46' W 119°09'3 2.6
2015-May-01 18:33N 31°47' W 119°11'3 2.9
2015-May-01 17:33N 31°49' W 119°14'5 4.7
2015-May-01 16:33N 31°52' W 119°18'6 5.6
2015-May-01 15:33N 31°55' W 119°24'3 3.0
2015-May-01 14:32N 31°57' W 119°26'1 1.2
2015-May-01 13:33N 31°58' W 119°27'1 1.5
2015-May-01 12:33N 31°59' W 119°28'4 3.0
2015-May-01 11:22N 31°58' W 119°25'1 1.3
2015-May-01 10:33N 31°57' W 119°24'1 0.9
2015-May-01 09:26N 31°58' W 119°25'1 1.4
2015-May-01 08:33N 31°59' W 119°26'1 1.4
2015-May-01 07:33N 31°60' W 119°27'1 1.3
2015-May-01 06:33N 32°00' W 119°28'1 1.0
2015-May-01 05:33N 32°01' W 119°29'8 2.7
2015-May-01 02:33N 32°00' W 119°20'5 1.9
2015-May-01 00:09N 32°02' W 119°15'5 3.1
2015-Apr-30 22:29N 32°02' W 119°21'2 2.0
2015-Apr-30 21:33N 32°02' W 119°19'4 3.3
2015-Apr-30 20:17N 32°01' W 119°24'5 6.4
2015-Apr-30 19:32N 31°57' W 119°27'10 8.9
2015-Apr-30 18:23N 31°50' W 119°19'911.1
2015-Apr-30 17:33N 31°43' W 119°12'1211.1
2015-Apr-30 16:30N 31°34' W 119°03'1311.0
2015-Apr-30 15:20N 31°24' W 118°54'3511.2
2015-Apr-30 12:13N 30°57' W 118°27'811.6
2015-Apr-30 11:34N 30°51' W 118°22'6510.4
2015-Apr-30 05:21N 29°58' W 117°38'1111.4
2015-Apr-30 04:22N 29°49' W 117°31'4711.5
2015-Apr-30 00:16N 29°11' W 116°59'811.7
2015-Apr-29 23:33N 29°04' W 116°53'  
Track history (hours):
 
Tides and Currents Weather Stations Pressure Air Temp Water Temp Dewpoint Dewpoint Depression Visibility Wind Speed Wind Dir Waves Ship Positions

Nave Celeste

Last reported at 2015-May-02 13:31 UTC. Time now 2015-Jul-01 12:00 UTC.
Position N 30°38' W 120°37'.
Warning: this ship's position is 59 days out of date.

Length 333 m; draft 22.4 m.

Type: Ship (hazmat cat A). MMSI: 477974000.

Date/timePositionNaut miles runAvg speedWind from/ knotsBaromVisibWave heightAir tempDewpointWater temp
2015-May-02 13:31N 30°38' W 120°37'2411.7
2015-May-02 11:29N 30°45' W 120°10'1612.3
2015-May-02 10:12N 30°50' W 119°53'1012.1
2015-May-02 09:23N 30°53' W 119°42'1212.1
2015-May-02 08:26N 30°56' W 119°29'52 8.5
2015-May-02 02:15N 31°42' W 119°00'2 2.4
2015-May-02 01:31N 31°43' W 119°02'2 1.9
2015-May-02 00:32N 31°44' W 119°04'2 1.2
2015-May-01 22:33N 31°42' W 119°02'3 2.5
2015-May-01 21:31N 31°43' W 119°05'3 2.5
2015-May-01 20:31N 31°45' W 119°07'2 1.8
2015-May-01 19:31N 31°46' W 119°09'3 2.6
2015-May-01 18:33N 31°47' W 119°11'3 2.9
2015-May-01 17:33N 31°49' W 119°14'5 4.7
2015-May-01 16:33N 31°52' W 119°18'6 5.6
2015-May-01 15:33N 31°55' W 119°24'3 3.0
2015-May-01 14:32N 31°57' W 119°26'1 1.2
2015-May-01 13:33N 31°58' W 119°27'1 1.5
2015-May-01 12:33N 31°59' W 119°28'4 3.0
2015-May-01 11:22N 31°58' W 119°25'1 1.3
2015-May-01 10:33N 31°57' W 119°24'1 0.9
2015-May-01 09:26N 31°58' W 119°25'1 1.4
2015-May-01 08:33N 31°59' W 119°26'1 1.4
2015-May-01 07:33N 31°60' W 119°27'1 1.3
2015-May-01 06:33N 32°00' W 119°28'1 1.0
2015-May-01 05:33N 32°01' W 119°29'8 2.7
2015-May-01 02:33N 32°00' W 119°20'5 1.9
2015-May-01 00:09N 32°02' W 119°15'5 3.1
2015-Apr-30 22:29N 32°02' W 119°21'2 2.0
2015-Apr-30 21:33N 32°02' W 119°19'4 3.3
2015-Apr-30 20:17N 32°01' W 119°24'5 6.4
2015-Apr-30 19:32N 31°57' W 119°27'10 8.9
2015-Apr-30 18:23N 31°50' W 119°19'911.1
2015-Apr-30 17:33N 31°43' W 119°12'1211.1
2015-Apr-30 16:30N 31°34' W 119°03'1311.0
2015-Apr-30 15:20N 31°24' W 118°54'3511.2
2015-Apr-30 12:13N 30°57' W 118°27'811.6
2015-Apr-30 11:34N 30°51' W 118°22'6510.4
2015-Apr-30 05:21N 29°58' W 117°38'1111.4
2015-Apr-30 04:22N 29°49' W 117°31'4711.5
2015-Apr-30 00:16N 29°11' W 116°59'811.7
2015-Apr-29 23:33N 29°04' W 116°53'  

Dump ship's entire track history